Time;durP1;ratioP1;P1;durP2;ratioP2;P2;SDS_P1;SDS_P2;PMS_P1;PMS_P2;Temp;Humidity;BMP_temperature;BMP_pressure;BME280_temperature;BME280_humidity;BME280_pressure;Samples;Min_cycle;Max_cycle;Signal;HPM_P1;HPM_P2
2023/12/21 00:02:26;;;;;;;6.33;4.53;;;;;9.00;100000.00;;;;5040773;28;20276;-71
2023/12/21 00:05:12;;;;;;;8.20;5.03;;;;;9.00;100011.00;;;;5043777;28;20245;-71
2023/12/21 00:08:00;;;;;;;6.20;4.37;;;;;9.00;99991.00;;;;5039762;28;20234;-72
2023/12/21 00:10:46;;;;;;;7.47;4.37;;;;;9.00;99992.00;;;;5044381;28;20250;-71
2023/12/21 00:13:32;;;;;;;6.77;4.30;;;;;9.00;99976.00;;;;5044690;28;20240;-72
2023/12/21 00:16:19;;;;;;;6.17;4.20;;;;;9.10;99991.00;;;;5045812;28;20238;-71
2023/12/21 00:19:05;;;;;;;8.20;4.40;;;;;9.00;99996.00;;;;5040179;28;20233;-71
2023/12/21 00:21:53;;;;;;;9.67;5.03;;;;;9.00;99999.00;;;;5041750;28;20235;-70
2023/12/21 00:24:40;;;;;;;6.67;4.33;;;;;9.10;99999.00;;;;5042426;28;20394;-72
2023/12/21 00:27:27;;;;;;;7.17;4.37;;;;;9.00;99996.00;;;;5038109;28;20662;-71
2023/12/21 00:30:14;;;;;;;6.37;4.03;;;;;9.10;99987.00;;;;5044291;28;20240;-70
2023/12/21 00:33:01;;;;;;;8.30;4.27;;;;;9.00;99991.00;;;;5044994;28;20234;-71
2023/12/21 00:35:48;;;;;;;8.87;5.30;;;;;9.10;99976.00;;;;5045640;28;20231;-71
2023/12/21 00:38:34;;;;;;;7.20;4.63;;;;;9.10;99971.00;;;;5043593;28;20239;-72
2023/12/21 00:41:22;;;;;;;8.00;4.33;;;;;9.10;99974.00;;;;5048719;28;20280;-71
2023/12/21 00:44:08;;;;;;;8.30;5.00;;;;;9.10;99958.00;;;;5044182;28;20227;-71
2023/12/21 00:46:55;;;;;;;8.33;4.70;;;;;9.10;99963.00;;;;5037992;28;20232;-71
2023/12/21 00:49:41;;;;;;;8.50;5.30;;;;;9.10;99951.00;;;;5042282;28;20242;-72
2023/12/21 00:52:27;;;;;;;9.23;5.03;;;;;9.10;99952.00;;;;5046206;28;20822;-70
2023/12/21 00:55:14;;;;;;;9.50;4.83;;;;;9.10;99946.00;;;;5042273;28;20239;-71
2023/12/21 00:58:01;;;;;;;8.53;4.67;;;;;9.20;99953.00;;;;5044841;28;20230;-71
2023/12/21 01:00:48;;;;;;;6.67;4.50;;;;;9.20;99940.00;;;;5044392;28;20239;-71
2023/12/21 01:03:34;;;;;;;8.83;4.97;;;;;9.20;99938.00;;;;5044716;28;20240;-71
2023/12/21 01:06:21;;;;;;;7.90;4.67;;;;;9.10;99926.00;;;;5041051;28;20271;-72
2023/12/21 01:09:08;;;;;;;7.47;4.70;;;;;9.20;99917.00;;;;5048774;28;20332;-71
2023/12/21 01:11:55;;;;;;;9.23;4.60;;;;;9.20;99912.00;;;;5039332;28;20234;-72
2023/12/21 01:14:42;;;;;;;7.10;4.50;;;;;9.20;99907.00;;;;5044533;28;20231;-71
2023/12/21 01:17:29;;;;;;;7.20;4.90;;;;;9.20;99920.00;;;;5042604;28;20730;-72
2023/12/21 01:20:15;;;;;;;8.00;4.50;;;;;9.30;99922.00;;;;5044671;28;20231;-69
2023/12/21 01:23:02;;;;;;;7.63;4.30;;;;;9.20;99915.00;;;;5042120;28;20234;-71
2023/12/21 01:25:48;;;;;;;5.73;4.00;;;;;9.20;99895.00;;;;5037523;28;20779;-69
2023/12/21 01:28:34;;;;;;;6.17;3.53;;;;;9.20;99885.00;;;;5044415;28;20240;-69
2023/12/21 01:31:22;;;;;;;6.73;3.80;;;;;9.20;99887.00;;;;5041192;28;20379;-70
2023/12/21 01:34:08;;;;;;;5.30;3.67;;;;;9.20;99869.00;;;;5041900;28;20804;-71
2023/12/21 01:36:55;;;;;;;10.17;4.83;;;;;9.20;99884.00;;;;5036798;28;20624;-72
2023/12/21 01:39:41;;;;;;;4.83;3.60;;;;;9.20;99870.00;;;;5041659;28;20231;-72
2023/12/21 01:42:28;;;;;;;4.97;3.17;;;;;9.20;99857.00;;;;5025755;28;20240;-71
2023/12/21 01:45:14;;;;;;;3.73;2.80;;;;;9.20;99858.00;;;;5026863;28;20291;-70
2023/12/21 01:48:02;;;;;;;4.57;2.97;;;;;9.30;99862.00;;;;5036151;28;20386;-71
2023/12/21 01:50:50;;;;;;;4.10;3.03;;;;;9.30;99847.00;;;;5043833;28;20821;-71
2023/12/21 01:53:39;;;;;;;6.10;3.37;;;;;9.20;99847.00;;;;5042826;28;20727;-67
2023/12/21 01:56:25;;;;;;;5.53;3.37;;;;;9.20;99862.00;;;;5039746;28;20291;-67
2023/12/21 01:59:11;;;;;;;5.13;3.10;;;;;9.20;99840.00;;;;5038550;28;20311;-71
2023/12/21 02:01:58;;;;;;;3.57;2.90;;;;;9.30;99850.00;;;;5043339;28;20279;-72
2023/12/21 02:04:46;;;;;;;4.30;3.17;;;;;9.30;99834.00;;;;5038069;28;20244;-72
2023/12/21 02:07:32;;;;;;;5.70;3.67;;;;;9.20;99837.00;;;;5042057;28;20240;-71
2023/12/21 02:10:19;;;;;;;5.67;3.67;;;;;9.20;99838.00;;;;5043971;28;20612;-71
2023/12/21 02:13:06;;;;;;;4.67;3.20;;;;;9.30;99826.00;;;;5036657;28;20731;-71
2023/12/21 02:15:54;;;;;;;5.77;3.50;;;;;9.20;99840.00;;;;5028175;28;20706;-71
2023/12/21 02:18:41;;;;;;;3.87;2.97;;;;;9.30;99834.00;;;;5039545;28;20781;-70
2023/12/21 02:21:31;;;;;;;5.37;3.57;;;;;9.40;99835.00;;;;5039964;28;20342;-71
2023/12/21 02:24:19;;;;;;;5.93;3.60;;;;;9.30;99831.00;;;;5037936;28;20823;-71
2023/12/21 02:27:06;;;;;;;6.40;3.83;;;;;9.30;99813.00;;;;5040721;28;20229;-71
2023/12/21 02:29:52;;;;;;;6.23;3.73;;;;;9.40;99804.00;;;;5044504;28;20293;-67
2023/12/21 02:32:39;;;;;;;6.87;4.10;;;;;9.40;99805.00;;;;5036840;28;20244;-71
2023/12/21 02:35:25;;;;;;;5.67;3.50;;;;;9.30;99799.00;;;;5040009;28;20869;-71
2023/12/21 02:38:11;;;;;;;7.00;3.90;;;;;9.40;99795.00;;;;5037475;28;20284;-71
2023/12/21 02:41:00;;;;;;;4.83;3.47;;;;;9.30;99799.00;;;;5042480;28;20237;-69
2023/12/21 02:43:46;;;;;;;6.83;3.20;;;;;9.40;99790.00;;;;5040746;28;20279;-72
2023/12/21 02:46:33;;;;;;;6.93;3.23;;;;;9.40;99792.00;;;;5040336;28;20239;-70
2023/12/21 02:49:20;;;;;;;5.50;3.50;;;;;9.40;99777.00;;;;5043988;28;20267;-71
2023/12/21 02:52:07;;;;;;;4.67;3.00;;;;;9.30;99762.00;;;;5037634;28;20225;-71
2023/12/21 02:54:53;;;;;;;4.70;3.40;;;;;9.30;99759.00;;;;5042572;28;20234;-71
2023/12/21 02:57:41;;;;;;;5.67;3.27;;;;;9.40;99751.00;;;;5049238;28;20281;-72
2023/12/21 03:00:27;;;;;;;5.07;3.40;;;;;9.40;99756.00;;;;5046890;28;20601;-74
2023/12/21 03:03:14;;;;;;;6.07;4.37;;;;;9.40;99754.00;;;;5034294;28;20245;-72
2023/12/21 03:06:00;;;;;;;6.07;3.80;;;;;9.40;99748.00;;;;5031894;28;20741;-72
2023/12/21 03:08:46;;;;;;;6.63;4.40;;;;;9.40;99747.00;;;;5044295;28;20712;-72
2023/12/21 03:11:33;;;;;;;9.00;4.53;;;;;9.40;99743.00;;;;5045918;28;21003;-71
2023/12/21 03:14:22;;;;;;;5.87;4.00;;;;;9.40;99737.00;;;;5044315;28;20228;-71
2023/12/21 03:17:08;;;;;;;6.10;3.87;;;;;9.40;99727.00;;;;5038322;28;20662;-71
2023/12/21 03:19:55;;;;;;;7.40;4.17;;;;;9.40;99744.00;;;;5040793;28;20302;-70
2023/12/21 03:22:41;;;;;;;7.17;4.53;;;;;9.40;99727.00;;;;5029690;28;20243;-68
2023/12/21 03:25:28;;;;;;;6.83;3.77;;;;;9.40;99707.00;;;;5043036;28;20247;-71
2023/12/21 03:28:15;;;;;;;5.13;3.67;;;;;9.40;99703.00;;;;5042958;28;20993;-70
2023/12/21 03:31:02;;;;;;;5.53;3.73;;;;;9.40;99684.00;;;;5040259;28;20896;-72
2023/12/21 03:33:49;;;;;;;6.07;3.70;;;;;9.40;99685.00;;;;5042624;28;20269;-71
2023/12/21 03:36:36;;;;;;;5.40;3.37;;;;;9.40;99656.00;;;;5046514;28;20732;-70
2023/12/21 03:39:22;;;;;;;5.93;3.80;;;;;9.40;99654.00;;;;5042433;28;20224;-71
2023/12/21 03:42:09;;;;;;;7.10;4.00;;;;;9.30;99648.00;;;;5037341;28;20710;-72
2023/12/21 03:44:55;;;;;;;5.17;3.53;;;;;9.40;99653.00;;;;5045985;28;20804;-71
2023/12/21 03:47:42;;;;;;;8.30;4.27;;;;;9.40;99651.00;;;;5042199;28;20309;-72
2023/12/21 03:50:29;;;;;;;6.73;3.80;;;;;9.40;99629.00;;;;5045618;28;20848;-71
2023/12/21 03:53:16;;;;;;;5.47;3.47;;;;;9.40;99616.00;;;;5045681;28;20235;-70
2023/12/21 03:56:02;;;;;;;6.27;3.67;;;;;9.50;99613.00;;;;5040213;28;20239;-72
2023/12/21 03:58:49;;;;;;;4.50;3.00;;;;;9.40;99618.00;;;;5045064;28;20713;-73
2023/12/21 04:01:36;;;;;;;6.20;3.20;;;;;9.40;99624.00;;;;5042438;28;20233;-72
2023/12/21 04:04:23;;;;;;;5.87;3.77;;;;;9.50;99616.00;;;;5045785;28;20612;-72
2023/12/21 04:07:13;;;;;;;5.70;3.90;;;;;9.50;99621.00;;;;5039209;28;20247;-72
2023/12/21 04:10:00;;;;;;;9.13;3.93;;;;;9.40;99616.00;;;;5039344;28;20320;-70
2023/12/21 04:12:47;;;;;;;5.57;3.60;;;;;9.40;99607.00;;;;5040533;28;20225;-72
2023/12/21 04:15:34;;;;;;;6.37;4.00;;;;;9.40;99610.00;;;;5040060;28;20258;-73
2023/12/21 04:18:20;;;;;;;6.23;3.87;;;;;9.40;99595.00;;;;5044335;28;20595;-71
2023/12/21 04:21:08;;;;;;;5.00;3.50;;;;;9.40;99592.00;;;;5043394;28;20282;-71
2023/12/21 04:23:55;;;;;;;6.87;3.93;;;;;9.40;99585.00;;;;5050108;28;20382;-72
2023/12/21 04:26:41;;;;;;;6.47;4.13;;;;;9.50;99580.00;;;;5036345;28;20237;-72
2023/12/21 04:29:27;;;;;;;5.93;3.83;;;;;9.40;99557.00;;;;5036010;28;20714;-71
2023/12/21 04:32:13;;;;;;;6.33;3.87;;;;;9.40;99535.00;;;;5039111;28;20243;-72
2023/12/21 04:35:00;;;;;;;4.70;3.07;;;;;9.40;99494.00;;;;5042092;28;20248;-72
2023/12/21 04:37:47;;;;;;;6.13;3.77;;;;;9.40;99483.00;;;;5041304;28;20236;-70
2023/12/21 04:40:34;;;;;;;6.20;3.33;;;;;9.40;99499.00;;;;5048628;28;20235;-69
2023/12/21 04:43:20;;;;;;;5.27;3.33;;;;;9.50;99508.00;;;;5038703;28;20286;-70
2023/12/21 04:46:06;;;;;;;5.93;3.60;;;;;9.50;99495.00;;;;5037850;28;20232;-68
2023/12/21 04:48:53;;;;;;;6.77;3.67;;;;;9.40;99478.00;;;;5036284;28;20376;-72
2023/12/21 04:51:39;;;;;;;6.57;3.57;;;;;9.40;99465.00;;;;5028131;28;20227;-71
2023/12/21 04:54:27;;;;;;;6.20;3.93;;;;;9.50;99471.00;;;;5025316;28;20303;-69
2023/12/21 04:57:13;;;;;;;6.57;3.83;;;;;9.50;99469.00;;;;5023491;28;20229;-72
2023/12/21 05:00:01;;;;;;;6.10;3.50;;;;;9.40;99448.00;;;;5039779;28;20285;-70
2023/12/21 05:02:47;;;;;;;5.43;3.53;;;;;9.50;99454.00;;;;5039682;28;20302;-71
2023/12/21 05:05:34;;;;;;;6.07;3.53;;;;;9.40;99447.00;;;;5041003;28;20310;-71
2023/12/21 05:08:20;;;;;;;7.07;3.40;;;;;9.50;99431.00;;;;5043573;28;20225;-72
2023/12/21 05:11:08;;;;;;;5.63;3.33;;;;;9.50;99428.00;;;;5044712;28;20761;-71
2023/12/21 05:13:55;;;;;;;9.83;3.70;;;;;9.50;99403.00;;;;5037676;28;20232;-70
2023/12/21 05:16:42;;;;;;;5.70;3.07;;;;;9.50;99412.00;;;;5040582;28;20724;-72
2023/12/21 05:19:28;;;;;;;5.37;3.27;;;;;9.40;99412.00;;;;5032141;28;20228;-72
2023/12/21 05:22:15;;;;;;;8.37;3.27;;;;;9.50;99404.00;;;;5033796;28;20241;-72
2023/12/21 05:25:01;;;;;;;5.07;3.03;;;;;9.50;99406.00;;;;5025736;28;20351;-72
2023/12/21 05:27:49;;;;;;;4.67;2.80;;;;;9.50;99412.00;;;;5023627;28;20232;-71
2023/12/21 05:30:35;;;;;;;3.40;2.63;;;;;9.50;99405.00;;;;5035318;28;20228;-70
2023/12/21 05:33:21;;;;;;;4.87;2.87;;;;;9.50;99411.00;;;;5037572;28;20310;-71
2023/12/21 05:36:08;;;;;;;5.83;3.07;;;;;9.50;99407.00;;;;5043767;28;20225;-71
2023/12/21 05:38:55;;;;;;;5.20;2.97;;;;;9.50;99410.00;;;;5044059;28;20220;-71
2023/12/21 05:41:41;;;;;;;6.33;3.13;;;;;9.50;99413.00;;;;5046314;28;20261;-71
2023/12/21 05:44:29;;;;;;;6.87;3.23;;;;;9.50;99407.00;;;;5041010;28;20244;-70
2023/12/21 05:47:15;;;;;;;5.70;3.63;;;;;9.60;99410.00;;;;5036416;28;20233;-71
2023/12/21 05:50:01;;;;;;;5.07;3.50;;;;;9.60;99382.00;;;;5044610;28;20723;-71
2023/12/21 05:52:48;;;;;;;5.53;3.47;;;;;9.60;99386.00;;;;5043161;28;21042;-70
2023/12/21 05:55:35;;;;;;;6.93;3.10;;;;;9.60;99384.00;;;;5048985;28;20240;-72
2023/12/21 05:58:21;;;;;;;4.97;2.90;;;;;9.50;99383.00;;;;5042321;28;20236;-68
2023/12/21 06:01:09;;;;;;;5.03;3.30;;;;;9.60;99355.00;;;;5041762;28;20326;-74
2023/12/21 06:03:56;;;;;;;4.53;2.83;;;;;9.60;99367.00;;;;5041173;28;20240;-69
2023/12/21 06:06:45;;;;;;;5.67;3.67;;;;;9.60;99368.00;;;;5043495;28;20240;-71
2023/12/21 06:09:32;;;;;;;6.60;3.70;;;;;9.50;99378.00;;;;5038171;28;20232;-71
2023/12/21 06:12:18;;;;;;;6.23;3.90;;;;;9.50;99379.00;;;;5038655;28;20230;-70
2023/12/21 06:15:06;;;;;;;6.53;3.77;;;;;9.50;99369.00;;;;5040264;28;20335;-71
2023/12/21 06:17:53;;;;;;;6.53;3.37;;;;;9.60;99345.00;;;;5041602;28;20410;-71
2023/12/21 06:20:40;;;;;;;8.03;4.73;;;;;9.60;99360.00;;;;5033868;28;20236;-71
2023/12/21 06:23:26;;;;;;;7.33;3.77;;;;;9.60;99357.00;;;;5041395;28;20298;-72
2023/12/21 06:26:13;;;;;;;8.63;4.47;;;;;9.60;99387.00;;;;5042755;28;20315;-72
2023/12/21 06:28:59;;;;;;;7.23;4.47;;;;;9.70;99357.00;;;;5043380;28;20236;-72
2023/12/21 06:31:45;;;;;;;7.83;3.87;;;;;9.60;99331.00;;;;5044532;28;20228;-70
2023/12/21 06:34:33;;;;;;;9.80;4.17;;;;;9.60;99321.00;;;;5041915;28;20710;-71
2023/12/21 06:37:20;;;;;;;13.90;5.00;;;;;9.60;99323.00;;;;5040735;28;20310;-72
2023/12/21 06:40:09;;;;;;;13.73;5.80;;;;;9.60;99294.00;;;;5040030;28;20228;-72
2023/12/21 06:42:55;;;;;;;9.97;5.07;;;;;9.60;99291.00;;;;5042121;28;20237;-73
2023/12/21 06:45:41;;;;;;;11.70;5.30;;;;;9.60;99298.00;;;;5047801;28;20475;-72
2023/12/21 06:48:28;;;;;;;14.03;6.17;;;;;9.70;99300.00;;;;5045752;28;20743;-71
2023/12/21 06:51:16;;;;;;;12.07;4.80;;;;;9.70;99294.00;;;;5036799;28;20867;-73
2023/12/21 06:54:02;;;;;;;14.13;4.50;;;;;9.70;99287.00;;;;5043411;28;20232;-69
2023/12/21 06:56:49;;;;;;;10.47;4.90;;;;;9.60;99272.00;;;;5044234;28;20255;-71
2023/12/21 06:59:35;;;;;;;8.87;4.80;;;;;9.60;99261.00;;;;5043033;28;20277;-72
2023/12/21 07:02:22;;;;;;;6.90;3.70;;;;;9.70;99264.00;;;;5044093;28;20231;-69
2023/12/21 07:05:08;;;;;;;7.43;4.37;;;;;9.80;99259.00;;;;5045882;28;20367;-72
2023/12/21 07:07:57;;;;;;;8.43;3.90;;;;;9.80;99244.00;;;;5041924;28;20239;-74
2023/12/21 07:10:43;;;;;;;8.20;4.57;;;;;9.80;99242.00;;;;5042354;28;20279;-72
2023/12/21 07:13:30;;;;;;;8.87;4.00;;;;;9.80;99226.00;;;;5044131;28;20232;-73
2023/12/21 07:16:17;;;;;;;8.83;3.97;;;;;9.80;99216.00;;;;5043149;28;20314;-72
2023/12/21 07:19:06;;;;;;;7.93;3.93;;;;;9.70;99200.00;;;;5038932;28;20229;-72
2023/12/21 07:21:52;;;;;;;6.93;4.73;;;;;9.80;99202.00;;;;5042230;28;20303;-72
2023/12/21 07:24:40;;;;;;;6.70;3.97;;;;;9.70;99209.00;;;;5042451;28;20457;-73
2023/12/21 07:27:26;;;;;;;8.90;3.77;;;;;9.70;99190.00;;;;5035024;28;20236;-73
2023/12/21 07:30:13;;;;;;;10.30;4.07;;;;;9.80;99165.00;;;;5044600;28;20287;-70
2023/12/21 07:33:00;;;;;;;9.27;4.53;;;;;9.80;99176.00;;;;5043558;28;20643;-72
2023/12/21 07:35:48;;;;;;;7.37;4.27;;;;;9.70;99170.00;;;;5041601;28;20229;-73
2023/12/21 07:38:35;;;;;;;7.70;4.63;;;;;9.80;99163.00;;;;5040104;28;20236;-69
2023/12/21 07:41:23;;;;;;;7.67;4.40;;;;;9.80;99156.00;;;;5043532;28;20244;-72
2023/12/21 07:44:09;;;;;;;8.17;4.03;;;;;9.70;99151.00;;;;5033236;28;20232;-72
2023/12/21 07:46:55;;;;;;;9.93;4.63;;;;;9.80;99134.00;;;;5037863;28;20241;-71
2023/12/21 07:49:42;;;;;;;7.07;4.00;;;;;9.70;99132.00;;;;5050480;28;20239;-72
2023/12/21 07:52:28;;;;;;;7.40;4.27;;;;;9.70;99143.00;;;;5049057;28;20221;-72
2023/12/21 07:55:15;;;;;;;8.60;4.03;;;;;9.80;99128.00;;;;5042369;28;20232;-73
2023/12/21 07:58:03;;;;;;;10.33;4.23;;;;;9.70;99118.00;;;;5041997;28;21015;-71
2023/12/21 08:00:49;;;;;;;7.57;3.70;;;;;9.80;99122.00;;;;5037939;28;20235;-72
2023/12/21 08:03:36;;;;;;;6.67;3.63;;;;;9.80;99128.00;;;;5045729;28;20225;-73
2023/12/21 08:06:23;;;;;;;5.00;3.43;;;;;9.80;99108.00;;;;5044931;28;20238;-72
2023/12/21 08:09:09;;;;;;;6.63;3.33;;;;;9.80;99117.00;;;;5044770;28;20439;-73
2023/12/21 08:11:56;;;;;;;8.57;4.27;;;;;9.90;99108.00;;;;5040400;28;20702;-72
2023/12/21 08:14:43;;;;;;;6.57;4.07;;;;;9.80;99122.00;;;;5031411;28;20295;-72
2023/12/21 08:17:31;;;;;;;8.37;3.47;;;;;9.80;99097.00;;;;5038174;28;20236;-73
2023/12/21 08:20:17;;;;;;;6.47;3.87;;;;;9.80;99097.00;;;;5039888;28;20332;-69
2023/12/21 08:23:04;;;;;;;7.37;4.07;;;;;9.80;99084.00;;;;5046358;28;20232;-71
2023/12/21 08:25:51;;;;;;;5.33;3.70;;;;;9.80;99106.00;;;;5038914;28;20240;-71
2023/12/21 08:28:38;;;;;;;5.60;3.43;;;;;9.90;99108.00;;;;5040421;28;20260;-73
2023/12/21 08:31:27;;;;;;;7.50;3.10;;;;;9.90;99128.00;;;;5042966;28;20252;-72
2023/12/21 08:34:14;;;;;;;5.77;3.13;;;;;9.90;99095.00;;;;5044246;28;20271;-72
2023/12/21 08:37:00;;;;;;;4.77;2.83;;;;;9.90;99089.00;;;;5036956;28;20309;-72
2023/12/21 08:39:47;;;;;;;4.97;3.03;;;;;9.90;99083.00;;;;5034980;28;20252;-72
2023/12/21 08:42:33;;;;;;;6.33;4.00;;;;;9.90;99070.00;;;;5041338;28;20224;-69
2023/12/21 08:45:21;;;;;;;11.03;3.77;;;;;10.00;99067.00;;;;5029497;28;20274;-72
2023/12/21 08:48:09;;;;;;;4.03;2.80;;;;;9.90;99059.00;;;;5043842;28;20237;-71
2023/12/21 08:50:55;;;;;;;3.33;2.57;;;;;10.00;99050.00;;;;5040071;28;20243;-72
2023/12/21 08:53:42;;;;;;;7.00;3.30;;;;;10.00;99039.00;;;;5041430;28;20768;-72
2023/12/21 08:56:28;;;;;;;5.03;2.30;;;;;9.90;99055.00;;;;5031609;28;20678;-69
2023/12/21 08:59:15;;;;;;;4.93;2.67;;;;;10.00;99036.00;;;;5054340;28;20255;-72
2023/12/21 09:02:02;;;;;;;3.80;2.87;;;;;10.00;99038.00;;;;5050449;28;20291;-73
2023/12/21 09:04:49;;;;;;;4.77;2.70;;;;;10.00;99032.00;;;;5036878;28;20721;-74
2023/12/21 09:07:35;;;;;;;4.47;2.93;;;;;10.00;99022.00;;;;5041587;28;20232;-73
2023/12/21 09:10:22;;;;;;;4.90;3.00;;;;;10.00;99019.00;;;;5042277;28;20808;-67
2023/12/21 09:13:08;;;;;;;5.67;3.03;;;;;10.00;98994.00;;;;5037796;28;20232;-72
2023/12/21 09:15:55;;;;;;;3.80;2.37;;;;;10.00;99007.00;;;;5041737;28;20224;-73
2023/12/21 09:18:43;;;;;;;5.73;3.23;;;;;10.00;99013.00;;;;5043846;28;20236;-70
2023/12/21 09:21:31;;;;;;;8.57;3.47;;;;;10.00;98999.00;;;;5043452;28;20232;-72
2023/12/21 09:24:17;;;;;;;4.67;3.20;;;;;10.10;98983.00;;;;5042470;28;20710;-70
2023/12/21 09:27:07;;;;;;;4.57;2.70;;;;;10.10;98980.00;;;;5040529;28;20240;-72
2023/12/21 09:29:54;;;;;;;4.33;3.00;;;;;10.00;98972.00;;;;5043432;28;20342;-73
2023/12/21 09:32:41;;;;;;;4.00;2.70;;;;;10.10;98978.00;;;;5043303;28;20267;-71
2023/12/21 09:35:27;;;;;;;6.73;3.30;;;;;10.10;98960.00;;;;5043748;28;20275;-72
2023/12/21 09:38:15;;;;;;;4.67;3.13;;;;;10.20;98976.00;;;;5040926;28;20257;-71
2023/12/21 09:41:01;;;;;;;6.93;3.00;;;;;10.10;98962.00;;;;5041330;28;20752;-71
2023/12/21 09:43:48;;;;;;;4.07;2.80;;;;;10.20;98977.00;;;;5043536;28;20310;-71
2023/12/21 09:46:38;;;;;;;6.07;3.17;;;;;10.20;98956.00;;;;5040157;28;20240;-67
2023/12/21 09:49:25;;;;;;;3.20;2.50;;;;;10.20;98956.00;;;;5040567;28;20228;-72
2023/12/21 09:52:12;;;;;;;4.30;2.80;;;;;10.20;98947.00;;;;5040300;28;20227;-71
2023/12/21 09:55:01;;;;;;;3.83;2.83;;;;;10.20;98968.00;;;;5033286;28;20750;-73
2023/12/21 09:57:49;;;;;;;3.90;2.57;;;;;10.20;98950.00;;;;5045275;28;20239;-71
2023/12/21 10:00:35;;;;;;;3.50;2.30;;;;;10.20;98960.00;;;;5036582;28;20228;-71
2023/12/21 10:03:22;;;;;;;2.97;2.17;;;;;10.20;98950.00;;;;5037575;28;20228;-72
2023/12/21 10:06:09;;;;;;;2.73;2.07;;;;;10.20;98949.00;;;;5043728;28;20240;-73
2023/12/21 10:08:56;;;;;;;2.77;2.03;;;;;10.30;98921.00;;;;5040870;28;20286;-73
2023/12/21 10:11:44;;;;;;;2.07;1.87;;;;;10.30;98934.00;;;;5051070;28;20231;-72
2023/12/21 10:14:31;;;;;;;2.80;2.30;;;;;10.30;98932.00;;;;5040327;28;20732;-71
2023/12/21 10:17:19;;;;;;;2.30;1.80;;;;;10.30;98937.00;;;;5038732;28;20258;-71
2023/12/21 10:20:11;;;;;;;2.30;1.90;;;;;10.40;98921.00;;;;5042334;28;20296;-72
2023/12/21 10:22:58;;;;;;;1.83;1.63;;;;;10.30;98922.00;;;;5039416;28;20236;-72
2023/12/21 10:25:46;;;;;;;2.77;1.80;;;;;10.30;98896.00;;;;5050430;28;21013;-73
2023/12/21 10:28:34;;;;;;;2.00;1.70;;;;;10.40;98908.00;;;;5048491;28;20262;-70
2023/12/21 10:31:22;;;;;;;1.97;1.63;;;;;10.40;98900.00;;;;5047776;28;20236;-71
2023/12/21 10:34:09;;;;;;;2.20;1.33;;;;;10.50;98903.00;;;;5048067;28;20303;-72
2023/12/21 10:37:00;;;;;;;1.83;1.33;;;;;10.40;98893.00;;;;5043610;28;20251;-71
2023/12/21 10:39:47;;;;;;;1.53;1.43;;;;;10.50;98880.00;;;;5042844;28;20634;-72
2023/12/21 10:42:33;;;;;;;1.70;1.60;;;;;10.40;98875.00;;;;5050105;28;20223;-72
2023/12/21 10:45:21;;;;;;;1.80;1.70;;;;;10.50;98874.00;;;;5050664;28;20232;-72
2023/12/21 10:48:22;;;;;;;1.53;1.10;;;;;10.50;98867.00;;;;5049139;28;20231;-71
2023/12/21 10:51:11;;;;;;;1.50;1.10;;;;;10.50;98871.00;;;;5046769;28;20228;-70
2023/12/21 10:53:58;;;;;;;2.10;1.40;;;;;10.50;98862.00;;;;5045759;28;20306;-70
2023/12/21 10:56:46;;;;;;;2.23;1.33;;;;;10.50;98855.00;;;;5048752;28;20233;-71
2023/12/21 10:59:36;;;;;;;1.80;1.40;;;;;10.60;98848.00;;;;5047196;28;20815;-70
2023/12/21 11:02:26;;;;;;;2.63;1.40;;;;;10.60;98831.00;;;;5046704;28;20860;-70
2023/12/21 11:05:19;;;;;;;6.43;2.03;;;;;10.60;98826.00;;;;5052999;28;20305;-69
2023/12/21 11:08:06;;;;;;;1.73;1.40;;;;;10.60;98822.00;;;;5044044;28;20276;-70
2023/12/21 11:10:55;;;;;;;3.93;1.50;;;;;10.70;98819.00;;;;5052097;28;20240;-67
2023/12/21 11:13:44;;;;;;;1.60;1.50;;;;;10.70;98808.00;;;;5048833;28;20232;-74
2023/12/21 11:16:35;;;;;;;1.60;1.23;;;;;10.70;98825.00;;;;5042162;28;20739;-71
2023/12/21 11:19:28;;;;;;;1.93;1.30;;;;;10.80;98856.00;;;;5049762;28;20624;-70
2023/12/21 11:22:15;;;;;;;3.27;1.40;;;;;10.80;98824.00;;;;5039526;28;20713;-74
2023/12/21 11:25:02;;;;;;;2.53;1.90;;;;;10.70;98808.00;;;;5040322;28;20303;-71
2023/12/21 11:27:49;;;;;;;2.27;1.50;;;;;10.80;98843.00;;;;5038802;28;20318;-71
2023/12/21 11:30:36;;;;;;;2.40;1.90;;;;;10.80;98843.00;;;;5045168;28;20367;-71
2023/12/21 11:33:28;;;;;;;4.37;1.37;;;;;10.90;98820.00;;;;5044662;28;20629;-70
2023/12/21 11:36:26;;;;;;;2.80;1.60;;;;;10.90;98828.00;;;;5043353;28;20241;-71
2023/12/21 11:39:16;;;;;;;1.60;1.50;;;;;10.90;98809.00;;;;5038964;28;20254;-68
2023/12/21 11:42:03;;;;;;;2.67;1.27;;;;;10.90;98811.00;;;;5041107;28;20229;-73
2023/12/21 11:44:52;;;;;;;1.33;1.17;;;;;10.90;98798.00;;;;5040678;28;20274;-72
2023/12/21 11:47:39;;;;;;;4.40;1.30;;;;;11.00;98792.00;;;;5043683;28;20626;-72
2023/12/21 11:50:30;;;;;;;1.50;1.17;;;;;11.00;98783.00;;;;5050558;28;20314;-71
2023/12/21 11:53:26;;;;;;;2.80;1.30;;;;;11.00;98787.00;;;;5047016;28;20244;-70
2023/12/21 11:56:34;;;;;;;3.80;1.30;;;;;11.10;98799.00;;;;5041939;28;20240;-72
2023/12/21 11:59:23;;;;;;;1.20;1.00;;;;;11.10;98761.00;;;;5042799;28;20263;-70
2023/12/21 12:02:12;;;;;;;6.10;1.27;;;;;11.10;98768.00;;;;5034083;28;20295;-74
2023/12/21 12:04:59;;;;;;;1.57;1.30;;;;;11.10;98763.00;;;;5049466;28;20232;-71
2023/12/21 12:07:48;;;;;;;3.97;1.07;;;;;11.10;98764.00;;;;5044499;28;20593;-71
2023/12/21 12:10:36;;;;;;;2.37;1.23;;;;;11.10;98785.00;;;;5045314;28;20741;-64
2023/12/21 12:13:22;;;;;;;6.03;1.20;;;;;11.20;98771.00;;;;5038252;28;20233;-72
2023/12/21 12:16:08;;;;;;;1.80;1.40;;;;;11.20;98764.00;;;;5036907;28;20232;-72
2023/12/21 12:18:55;;;;;;;2.00;0.90;;;;;11.20;98767.00;;;;5032758;28;20383;-72
2023/12/21 12:21:42;;;;;;;3.37;1.47;;;;;11.20;98762.00;;;;5035773;28;20222;-72
2023/12/21 12:24:28;;;;;;;1.77;1.00;;;;;11.20;98763.00;;;;5051277;28;20237;-74
2023/12/21 12:27:17;;;;;;;1.40;1.30;;;;;11.20;98770.00;;;;5050864;28;20807;-71
2023/12/21 12:30:04;;;;;;;4.07;1.20;;;;;11.30;98751.00;;;;5033055;28;20267;-73
2023/12/21 12:32:51;;;;;;;1.47;1.10;;;;;11.30;98752.00;;;;5034517;28;20384;-72
2023/12/21 12:35:39;;;;;;;2.03;0.97;;;;;11.30;98750.00;;;;5042569;28;20353;-74
2023/12/21 12:38:27;;;;;;;3.23;1.10;;;;;11.40;98731.00;;;;5042026;28;20298;-72
2023/12/21 12:41:19;;;;;;;1.50;1.40;;;;;11.30;98728.00;;;;5044094;28;20253;-72
2023/12/21 12:44:08;;;;;;;4.43;1.07;;;;;11.30;98722.00;;;;5039734;28;20371;-71
2023/12/21 12:46:55;;;;;;;2.97;1.10;;;;;11.30;98724.00;;;;5045910;28;20236;-72
2023/12/21 12:49:42;;;;;;;2.90;1.37;;;;;11.40;98718.00;;;;5043113;28;20261;-71
2023/12/21 12:52:29;;;;;;;1.43;1.33;;;;;11.40;98720.00;;;;5033579;28;20308;-71
2023/12/21 12:55:15;;;;;;;1.00;1.00;;;;;11.40;98746.00;;;;5044500;28;20233;-72
2023/12/21 12:58:05;;;;;;;2.10;1.40;;;;;11.40;98728.00;;;;5044222;28;20271;-71
2023/12/21 13:00:53;;;;;;;4.00;1.30;;;;;11.40;98733.00;;;;5047985;28;20229;-72
2023/12/21 13:03:40;;;;;;;3.17;1.53;;;;;11.40;98737.00;;;;5042973;28;20310;-71
2023/12/21 13:06:26;;;;;;;3.00;1.50;;;;;11.40;98746.00;;;;5043566;28;20236;-72
2023/12/21 13:09:13;;;;;;;1.17;1.10;;;;;11.40;98734.00;;;;5038510;28;20228;-71
2023/12/21 13:11:59;;;;;;;2.77;1.03;;;;;11.40;98732.00;;;;5041102;28;20835;-72
2023/12/21 13:14:45;;;;;;;1.40;1.30;;;;;11.30;98746.00;;;;5041491;28;20232;-74
2023/12/21 13:17:33;;;;;;;2.33;1.20;;;;;11.30;98727.00;;;;5044059;28;20255;-74
2023/12/21 13:20:20;;;;;;;3.03;1.40;;;;;11.30;98740.00;;;;5039546;28;20710;-70
2023/12/21 13:23:07;;;;;;;4.87;1.33;;;;;11.30;98741.00;;;;5038082;28;20324;-68
2023/12/21 13:25:54;;;;;;;3.03;1.50;;;;;11.30;98743.00;;;;5041565;28;20244;-71
2023/12/21 13:28:43;;;;;;;3.43;1.40;;;;;11.30;98740.00;;;;5038768;28;20243;-72
2023/12/21 13:31:30;;;;;;;5.30;1.50;;;;;11.20;98720.00;;;;5043605;28;20228;-72
2023/12/21 13:34:17;;;;;;;1.37;1.27;;;;;11.20;98728.00;;;;5039967;28;20232;-70
2023/12/21 13:37:05;;;;;;;4.03;1.47;;;;;11.10;98695.00;;;;5041048;28;20419;-70
2023/12/21 13:39:52;;;;;;;3.37;1.40;;;;;11.20;98714.00;;;;5039478;28;20356;-71
2023/12/21 13:42:39;;;;;;;1.90;1.20;;;;;11.10;98731.00;;;;5042828;28;20232;-71
2023/12/21 13:45:25;;;;;;;1.00;0.90;;;;;11.10;98729.00;;;;5035282;28;20356;-71
2023/12/21 13:48:12;;;;;;;1.07;1.00;;;;;11.10;98741.00;;;;5036581;28;20235;-72
2023/12/21 13:51:00;;;;;;;1.47;1.17;;;;;11.10;98735.00;;;;5036715;28;20371;-70
2023/12/21 13:53:46;;;;;;;1.80;1.03;;;;;11.00;98766.00;;;;5036356;28;20279;-69
2023/12/21 13:56:34;;;;;;;2.10;1.20;;;;;11.00;98748.00;;;;5037712;28;20306;-71
2023/12/21 13:59:20;;;;;;;4.43;1.20;;;;;11.00;98732.00;;;;5043574;28;20237;-70
2023/12/21 14:02:07;;;;;;;2.60;1.30;;;;;11.00;98747.00;;;;5037750;28;20770;-72
2023/12/21 14:04:54;;;;;;;1.27;1.03;;;;;11.00;98730.00;;;;5041590;28;20225;-70